CPX254 Details

Departure: Princess Juliana International Airport (TNCM)
Arrival: Miami International Airport (KMIA)
Route: PJM B520 STT RTE6 SJU ACONY Y308 FOWEE FLIPR6


Current Weather Information
TNCM 252300Z 09012KT 050V130 9999 SCT016 26/21 Q1016 A3000 NOSIG
KMIA 252253Z 12010KT 10SM FEW025 FEW042 FEW250 25/19 A3002 RMK AO2 SLP164 T02500194